createdAt,value
2022-12-03T00:01:45.914Z,20.88
2022-12-03T00:04:12.382Z,19.77
2022-12-03T00:06:38.602Z,19.95
2022-12-03T00:09:05.038Z,20.35
2022-12-03T00:11:31.377Z,18.45
2022-12-03T00:13:57.633Z,19.73
2022-12-03T00:16:23.915Z,23.02
2022-12-03T00:18:50.227Z,20.92
2022-12-03T00:21:16.484Z,21.25
2022-12-03T00:23:42.739Z,16.67
2022-12-03T00:26:09.022Z,22.55
2022-12-03T00:28:35.241Z,19.58
2022-12-03T00:31:01.520Z,18.58
2022-12-03T00:33:27.812Z,19.48
2022-12-03T00:35:54.072Z,20.45
2022-12-03T00:38:20.302Z,21.52
2022-12-03T00:40:46.567Z,18.52
2022-12-03T00:43:12.891Z,19.40
2022-12-03T00:45:39.094Z,17.58
2022-12-03T00:48:05.427Z,17.25
2022-12-03T00:50:31.654Z,18.88
2022-12-03T00:52:57.879Z,18.40
2022-12-03T00:55:24.120Z,20.83
2022-12-03T00:57:50.375Z,19.75
2022-12-03T01:00:16.897Z,19.70
2022-12-03T01:02:43.150Z,16.83
2022-12-03T01:05:09.533Z,19.98
2022-12-03T01:07:36.255Z,18.08
2022-12-03T01:10:03.670Z,18.20
2022-12-03T01:12:29.881Z,18.33
2022-12-03T01:14:56.272Z,15.73
2022-12-03T01:17:22.538Z,17.65
2022-12-03T01:19:48.871Z,18.45
2022-12-03T01:22:15.084Z,20.75
2022-12-03T01:24:41.311Z,17.80
2022-12-03T01:27:07.528Z,16.92
2022-12-03T01:29:33.779Z,17.75
2022-12-03T01:32:19.211Z,19.83
2022-12-03T01:34:46.406Z,15.98
2022-12-03T01:37:13.274Z,16.98
2022-12-03T01:42:07.776Z,18.88
2022-12-03T01:44:34.850Z,18.83
2022-12-03T01:47:02.270Z,19.00
2022-12-03T01:49:29.670Z,18.55
2022-12-03T01:51:56.244Z,21.55
2022-12-03T01:54:26.046Z,17.35
2022-12-03T01:56:53.327Z,19.13
2022-12-03T01:59:21.057Z,20.15
2022-12-03T02:01:47.356Z,18.42
2022-12-03T02:04:14.726Z,17.73
2022-12-03T02:06:41.936Z,19.77
2022-12-03T02:09:09.950Z,20.85
2022-12-03T02:11:38.600Z,18.73
2022-12-03T02:14:10.166Z,21.40
2022-12-03T02:16:37.605Z,20.77
2022-12-03T02:19:04.473Z,23.25
2022-12-03T02:24:01.152Z,18.02
2022-12-03T02:26:27.501Z,20.27
2022-12-03T02:28:53.769Z,27.55
2022-12-03T02:31:20.146Z,17.40
2022-12-03T02:33:46.437Z,18.90
2022-12-03T02:36:12.719Z,21.08
2022-12-03T02:38:39.244Z,19.15
2022-12-03T02:41:09.052Z,21.13
2022-12-03T02:43:35.376Z,24.08
2022-12-03T02:46:02.443Z,20.13
2022-12-03T02:48:30.886Z,23.63
2022-12-03T02:50:59.273Z,22.98
2022-12-03T02:53:27.274Z,22.02
2022-12-03T02:55:54.548Z,23.10
2022-12-03T02:58:21.142Z,25.77
2022-12-03T03:00:49.245Z,24.80
2022-12-03T03:03:16.748Z,23.25
2022-12-03T03:05:43.349Z,22.88
2022-12-03T03:08:10.278Z,20.10
2022-12-03T03:13:03.759Z,22.10
2022-12-03T03:15:30.086Z,23.08
2022-12-03T03:17:56.323Z,20.15
2022-12-03T03:20:22.582Z,21.63
2022-12-03T03:22:48.969Z,19.95
2022-12-03T03:25:17.341Z,23.90
2022-12-03T03:27:44.334Z,22.17
2022-12-03T03:30:10.819Z,24.38
2022-12-03T03:32:37.440Z,22.52
2022-12-03T03:35:03.987Z,22.83
2022-12-03T03:37:30.364Z,20.77
2022-12-03T03:39:56.627Z,24.30
2022-12-03T03:42:23.116Z,21.77
2022-12-03T03:44:49.635Z,22.60
2022-12-03T03:47:16.656Z,22.05
2022-12-03T03:49:43.004Z,24.77
2022-12-03T03:52:11.502Z,23.58
2022-12-03T03:54:38.263Z,24.67
2022-12-03T03:57:04.655Z,19.85
2022-12-03T03:59:30.891Z,24.80
2022-12-03T04:01:57.123Z,26.38
2022-12-03T04:04:24.311Z,23.58
2022-12-03T04:06:50.625Z,23.20
2022-12-03T04:09:16.832Z,24.77
2022-12-03T04:12:01.853Z,21.88
2022-12-03T04:14:28.068Z,22.58
2022-12-03T04:16:54.318Z,22.25
2022-12-03T04:19:20.555Z,27.40
2022-12-03T04:22:05.399Z,22.38
2022-12-03T04:24:31.644Z,24.33
2022-12-03T04:27:16.416Z,26.90
2022-12-03T04:29:42.637Z,23.60
2022-12-03T04:32:27.527Z,28.27
2022-12-03T04:35:29.203Z,27.98
2022-12-03T04:37:55.604Z,22.65
2022-12-03T04:40:40.258Z,26.55
2022-12-03T04:43:06.556Z,26.13
2022-12-03T04:45:32.849Z,26.10
2022-12-03T04:47:59.130Z,26.52
2022-12-03T04:50:25.423Z,27.40
2022-12-03T04:52:51.664Z,24.77
2022-12-03T04:55:17.879Z,28.50
2022-12-03T04:57:44.150Z,27.10
2022-12-03T05:00:10.775Z,31.23
2022-12-03T05:02:37.054Z,28.20
2022-12-03T05:05:03.404Z,24.90
2022-12-03T05:07:29.697Z,27.30
2022-12-03T05:09:55.928Z,27.02
2022-12-03T05:12:22.150Z,25.45
2022-12-03T05:14:48.405Z,28.13
2022-12-03T05:17:14.652Z,26.75
2022-12-03T05:19:59.606Z,26.48
2022-12-03T05:22:25.834Z,31.08
2022-12-03T05:24:52.334Z,30.77
2022-12-03T05:27:23.327Z,28.88
2022-12-03T05:29:50.041Z,26.08
2022-12-03T05:32:16.287Z,28.02
2022-12-03T05:34:42.580Z,32.03
2022-12-03T05:37:08.819Z,31.17
2022-12-03T05:39:35.052Z,30.52
2022-12-03T05:42:19.931Z,28.83
2022-12-03T05:44:46.167Z,26.80
2022-12-03T05:47:12.411Z,28.10
2022-12-03T05:49:38.652Z,29.38
2022-12-03T05:52:04.971Z,34.55
2022-12-03T05:54:31.198Z,28.52
2022-12-03T05:56:57.442Z,29.63
2022-12-03T05:59:23.672Z,29.50
2022-12-03T06:01:49.883Z,35.95
2022-12-03T06:04:16.117Z,30.67
2022-12-03T06:06:42.327Z,32.10
2022-12-03T06:09:08.555Z,32.72
2022-12-03T06:11:36.861Z,31.45
2022-12-03T06:14:03.358Z,32.17
2022-12-03T06:16:29.685Z,34.95
2022-12-03T06:18:55.973Z,34.75
2022-12-03T06:21:22.253Z,32.67
2022-12-03T06:23:48.527Z,33.15
2022-12-03T06:26:14.887Z,34.83
2022-12-03T06:28:45.529Z,34.42
2022-12-03T06:31:12.441Z,35.20
2022-12-03T06:36:05.097Z,35.67
2022-12-03T06:38:31.358Z,37.00
2022-12-03T06:40:57.586Z,36.00
2022-12-03T06:43:23.811Z,31.17
2022-12-03T06:45:50.083Z,34.47
2022-12-03T06:48:16.339Z,34.03
2022-12-03T06:50:42.574Z,36.40
2022-12-03T06:53:08.792Z,34.60
2022-12-03T06:55:35.055Z,36.67
2022-12-03T06:58:01.277Z,33.92
2022-12-03T07:00:27.532Z,36.15
2022-12-03T07:02:53.901Z,32.70
2022-12-03T07:05:20.162Z,31.02
2022-12-03T07:07:51.921Z,32.65
2022-12-03T07:10:18.936Z,37.90
2022-12-03T07:15:11.327Z,34.30
2022-12-03T07:17:37.561Z,33.25
2022-12-03T07:20:06.823Z,37.55
2022-12-03T07:22:33.139Z,35.63
2022-12-03T07:24:59.378Z,37.85
2022-12-03T07:27:25.622Z,35.58
2022-12-03T07:29:51.847Z,35.33
2022-12-03T07:32:18.206Z,38.17
2022-12-03T07:34:44.430Z,41.53
2022-12-03T07:37:10.645Z,36.72
2022-12-03T07:39:36.961Z,34.88
2022-12-03T07:42:03.417Z,42.35
2022-12-03T07:44:31.619Z,39.92
2022-12-03T07:46:58.312Z,37.47
2022-12-03T07:49:24.859Z,45.33
2022-12-03T07:51:54.386Z,48.92
2022-12-03T07:54:20.924Z,51.15
2022-12-03T07:56:49.948Z,45.80
2022-12-03T07:59:16.837Z,43.25
2022-12-03T08:04:09.444Z,40.67
2022-12-03T08:06:35.715Z,44.35
2022-12-03T08:09:02.004Z,44.22
2022-12-03T08:11:28.910Z,40.42
2022-12-03T08:16:21.896Z,42.38
2022-12-03T08:21:15.940Z,39.95
2022-12-03T08:23:42.501Z,38.80
2022-12-03T08:26:25.582Z,40.22
2022-12-03T08:28:52.495Z,44.90
2022-12-03T08:33:50.493Z,43.42
2022-12-03T08:36:24.557Z,40.92
2022-12-03T08:38:51.938Z,43.30
2022-12-03T08:41:37.461Z,43.58
2022-12-03T08:44:22.515Z,44.38
2022-12-03T08:46:52.769Z,41.15
2022-12-03T08:49:20.100Z,42.55
2022-12-03T08:51:46.371Z,44.83
2022-12-03T08:54:14.278Z,46.45
2022-12-03T08:56:41.201Z,42.72
2022-12-03T09:01:38.553Z,47.47
2022-12-03T09:04:16.173Z,44.55
2022-12-03T09:06:42.560Z,44.65
2022-12-03T09:09:08.791Z,43.35
2022-12-03T09:11:35.090Z,40.85
2022-12-03T09:14:01.416Z,57.45
2022-12-03T09:16:27.826Z,44.63
2022-12-03T09:18:54.111Z,43.20
2022-12-03T09:21:20.508Z,40.42
2022-12-03T09:23:46.733Z,54.70
2022-12-03T09:26:12.979Z,47.53
2022-12-03T09:28:39.211Z,46.80
2022-12-03T09:31:05.545Z,43.78
2022-12-03T09:33:32.417Z,57.95
2022-12-03T09:35:59.388Z,43.22
2022-12-03T09:40:52.212Z,42.20
2022-12-03T09:43:18.653Z,43.42
2022-12-03T09:45:45.639Z,42.53
2022-12-03T09:48:12.840Z,45.00
2022-12-03T09:50:40.380Z,46.42
2022-12-03T09:53:06.608Z,42.45
2022-12-03T09:55:32.891Z,45.58
2022-12-03T09:58:00.546Z,41.33
2022-12-03T10:00:28.777Z,42.40
2022-12-03T10:02:57.203Z,50.17
2022-12-03T10:05:23.970Z,49.20
2022-12-03T10:07:51.104Z,51.75
2022-12-03T10:10:23.867Z,74.55
2022-12-03T10:12:50.747Z,71.15
2022-12-03T10:17:43.326Z,57.20
2022-12-03T10:20:11.220Z,53.70
2022-12-03T10:22:37.494Z,52.47
2022-12-03T10:25:12.342Z,40.75
2022-12-03T10:27:39.091Z,48.70
2022-12-03T10:30:13.990Z,43.42
2022-12-03T10:32:45.106Z,39.65
2022-12-03T10:35:12.863Z,38.45
2022-12-03T10:37:57.397Z,45.58
2022-12-03T10:40:24.836Z,46.55
2022-12-03T10:42:51.083Z,46.08
2022-12-03T10:45:24.938Z,44.10
2022-12-03T10:48:11.517Z,42.70
2022-12-03T10:50:38.104Z,42.28
2022-12-03T10:53:04.702Z,44.40
2022-12-03T10:55:35.715Z,41.70
2022-12-03T10:58:02.025Z,40.20
2022-12-03T11:00:28.446Z,39.17
2022-12-03T11:02:56.930Z,39.92
2022-12-03T11:05:26.831Z,40.40
2022-12-03T11:07:53.242Z,42.75
2022-12-03T11:10:19.836Z,39.15
2022-12-03T11:13:04.757Z,39.88
2022-12-03T11:15:41.881Z,39.17
2022-12-03T11:18:08.283Z,39.60
2022-12-03T11:21:00.271Z,38.67
2022-12-03T11:23:58.831Z,43.58
2022-12-03T11:26:27.974Z,38.85
2022-12-03T11:28:55.672Z,39.33
2022-12-03T11:31:40.927Z,40.67
2022-12-03T11:34:19.708Z,38.00
2022-12-03T11:37:04.436Z,42.67
2022-12-03T11:39:49.257Z,47.08
2022-12-03T11:42:27.520Z,52.38
2022-12-03T11:45:06.074Z,45.70
2022-12-03T11:47:33.967Z,39.22
2022-12-03T11:50:00.571Z,39.10
2022-12-03T11:52:29.227Z,44.05
2022-12-03T11:55:04.295Z,45.03
2022-12-03T11:57:33.039Z,41.78
2022-12-03T12:00:00.165Z,45.45
2022-12-03T12:02:26.524Z,48.38
2022-12-03T12:04:52.799Z,44.92
2022-12-03T12:07:35.435Z,45.63
2022-12-03T12:10:02.135Z,44.92
2022-12-03T12:12:36.903Z,41.00
2022-12-03T12:15:23.123Z,39.65
2022-12-03T12:17:49.421Z,46.83
2022-12-03T12:20:21.759Z,43.00
2022-12-03T12:22:47.983Z,46.30
2022-12-03T12:25:29.536Z,44.88
2022-12-03T12:27:56.680Z,56.65
2022-12-03T12:30:23.333Z,45.95
2022-12-03T12:32:51.226Z,47.45
2022-12-03T12:35:17.486Z,47.63
2022-12-03T12:37:59.632Z,53.47
2022-12-03T12:40:28.399Z,48.67
2022-12-03T12:42:57.442Z,48.30
2022-12-03T12:45:24.835Z,45.08
2022-12-03T12:48:09.719Z,48.78
2022-12-03T12:50:39.639Z,52.75
2022-12-03T12:53:26.135Z,44.53
2022-12-03T12:56:00.067Z,48.63
2022-12-03T12:58:28.192Z,43.92
2022-12-03T13:00:58.546Z,45.40
2022-12-03T13:03:26.173Z,45.75
2022-12-03T13:05:52.954Z,45.33
2022-12-03T13:08:22.322Z,46.00
2022-12-03T13:10:49.155Z,46.72
2022-12-03T13:13:17.687Z,46.17
2022-12-03T13:15:52.131Z,43.35
2022-12-03T13:18:21.475Z,48.50
2022-12-03T13:20:48.011Z,47.47
2022-12-03T13:23:26.009Z,43.80
2022-12-03T13:26:07.158Z,48.03
2022-12-03T13:28:40.849Z,56.28
2022-12-03T13:31:26.570Z,53.47
2022-12-03T13:33:53.498Z,53.67
2022-12-03T13:38:46.438Z,48.65
2022-12-03T13:41:33.312Z,51.15
2022-12-03T13:43:59.761Z,52.25
2022-12-03T13:46:28.263Z,50.63
2022-12-03T13:48:58.699Z,50.55
2022-12-03T13:51:29.542Z,48.97
2022-12-03T13:53:57.645Z,47.55
2022-12-03T13:56:31.651Z,46.72
2022-12-03T13:59:00.007Z,49.85
2022-12-03T14:01:27.015Z,48.55
2022-12-03T14:03:53.304Z,52.03
2022-12-03T14:06:19.566Z,48.67
2022-12-03T14:08:45.799Z,47.08
2022-12-03T14:11:32.236Z,43.53
2022-12-03T14:13:58.446Z,47.45
2022-12-03T14:16:24.761Z,48.05
2022-12-03T14:18:51.178Z,43.42
2022-12-03T14:21:17.432Z,69.75
2022-12-03T14:23:43.688Z,43.35
2022-12-03T14:26:09.972Z,44.92
2022-12-03T14:28:36.223Z,40.78
2022-12-03T14:31:02.568Z,44.05
2022-12-03T14:33:28.897Z,44.17
2022-12-03T14:35:56.201Z,46.53
2022-12-03T14:38:22.512Z,44.20
2022-12-03T14:40:48.756Z,45.83
2022-12-03T14:43:15.048Z,51.63
2022-12-03T14:45:41.425Z,42.40
2022-12-03T14:48:07.724Z,43.75
2022-12-03T14:50:33.974Z,40.53
2022-12-03T14:53:00.198Z,43.00
2022-12-03T14:55:26.462Z,47.65
2022-12-03T14:57:52.778Z,44.20
2022-12-03T15:00:19.308Z,45.33
2022-12-03T15:02:45.586Z,42.75
2022-12-03T15:05:11.887Z,43.70
2022-12-03T15:07:39.334Z,44.00
2022-12-03T15:10:06.694Z,43.22
2022-12-03T15:12:32.975Z,44.72
2022-12-03T15:14:59.599Z,45.00
2022-12-03T15:17:31.635Z,52.85
2022-12-03T15:19:58.317Z,44.28
2022-12-03T15:22:24.713Z,44.15
2022-12-03T15:24:50.974Z,42.80
2022-12-03T15:27:17.194Z,44.72
2022-12-03T15:29:43.515Z,49.30
2022-12-03T15:32:09.753Z,40.97
2022-12-03T15:34:36.008Z,48.08
2022-12-03T15:37:02.377Z,46.03
2022-12-03T15:39:29.476Z,43.38
2022-12-03T15:41:55.787Z,41.47
2022-12-03T15:44:22.049Z,48.60
2022-12-03T15:46:48.349Z,41.45
2022-12-03T15:49:14.657Z,45.80
2022-12-03T15:51:40.911Z,47.58
2022-12-03T15:54:07.229Z,41.65
2022-12-03T15:56:37.305Z,46.42
2022-12-03T15:59:03.651Z,40.30
2022-12-03T16:01:29.986Z,45.42
2022-12-03T16:03:56.257Z,50.40
2022-12-03T16:06:22.473Z,48.83
2022-12-03T16:08:48.703Z,49.42
2022-12-03T16:11:14.965Z,39.75
2022-12-03T16:13:41.165Z,42.08
2022-12-03T16:16:07.573Z,49.38
2022-12-03T16:18:33.904Z,40.08
2022-12-03T16:21:00.135Z,36.80
2022-12-03T16:23:26.379Z,44.22
2022-12-03T16:25:52.694Z,50.47
2022-12-03T16:28:18.914Z,37.58
2022-12-03T16:30:45.226Z,40.75
2022-12-03T16:33:11.474Z,39.10
2022-12-03T16:35:37.710Z,42.78
2022-12-03T16:38:03.917Z,43.50
2022-12-03T16:40:30.151Z,42.28
2022-12-03T16:42:56.378Z,39.15
2022-12-03T16:45:22.644Z,38.83
2022-12-03T16:47:49.580Z,39.47
2022-12-03T16:52:48.296Z,41.72
2022-12-03T16:55:14.559Z,47.13
2022-12-03T16:57:40.831Z,38.00
2022-12-03T17:00:07.576Z,41.58
2022-12-03T17:02:33.828Z,33.80
2022-12-03T17:05:00.129Z,40.30
2022-12-03T17:07:26.496Z,38.38
2022-12-03T17:09:53.126Z,37.97
2022-12-03T17:12:19.559Z,38.15
2022-12-03T17:14:45.793Z,34.72
2022-12-03T17:17:12.030Z,39.78
2022-12-03T17:19:38.241Z,39.53
2022-12-03T17:22:04.680Z,40.83
2022-12-03T17:24:30.881Z,38.72
2022-12-03T17:26:57.108Z,42.30
2022-12-03T17:29:23.335Z,40.85
2022-12-03T17:31:49.701Z,38.15
2022-12-03T17:34:16.004Z,40.50
2022-12-03T17:36:42.245Z,39.15
2022-12-03T17:39:08.446Z,39.88
2022-12-03T17:41:34.669Z,42.78
2022-12-03T17:44:04.721Z,46.60
2022-12-03T17:46:33.654Z,36.63
2022-12-03T17:48:59.907Z,40.55
2022-12-03T17:51:26.118Z,37.05
2022-12-03T17:53:52.400Z,41.13
2022-12-03T17:56:18.647Z,42.47
2022-12-03T17:58:44.853Z,42.65
2022-12-03T18:01:11.663Z,40.13
2022-12-03T18:03:37.963Z,37.15
2022-12-03T18:06:04.556Z,37.08
2022-12-03T18:08:30.751Z,45.60
2022-12-03T18:10:56.987Z,39.92
2022-12-03T18:13:23.223Z,41.05
2022-12-03T18:15:49.501Z,43.70
2022-12-03T18:18:15.882Z,40.53
2022-12-03T18:20:42.137Z,42.10
2022-12-03T18:23:08.378Z,44.45
2022-12-03T18:25:34.729Z,36.47
2022-12-03T18:28:00.968Z,39.22
2022-12-03T18:30:27.199Z,40.08
2022-12-03T18:32:53.492Z,35.15
2022-12-03T18:35:20.599Z,44.05
2022-12-03T18:37:48.587Z,39.53
2022-12-03T18:40:24.663Z,36.92
2022-12-03T18:42:50.918Z,38.60
2022-12-03T18:45:17.188Z,37.50
2022-12-03T18:47:43.538Z,44.03
2022-12-03T18:50:10.416Z,38.50
2022-12-03T18:55:02.787Z,37.40
2022-12-03T18:57:29.021Z,37.28
2022-12-03T18:59:55.685Z,42.83
2022-12-03T19:05:08.687Z,43.70
2022-12-03T19:07:35.023Z,37.90
2022-12-03T19:10:01.288Z,40.60
2022-12-03T19:12:27.546Z,42.90
2022-12-03T19:14:53.767Z,41.22
2022-12-03T19:17:21.296Z,43.20
2022-12-03T19:19:47.509Z,45.20
2022-12-03T19:22:13.754Z,45.80
2022-12-03T19:24:39.981Z,42.88
2022-12-03T19:27:06.220Z,44.65
2022-12-03T19:29:32.430Z,44.30
2022-12-03T19:31:58.744Z,43.17
2022-12-03T19:34:25.110Z,41.17
2022-12-03T19:36:51.373Z,48.13
2022-12-03T19:39:20.611Z,47.50
2022-12-03T19:41:46.888Z,43.78
2022-12-03T19:44:14.815Z,43.17
2022-12-03T19:46:41.353Z,44.28
2022-12-03T19:49:07.827Z,45.30
2022-12-03T19:51:35.623Z,46.90
2022-12-03T19:54:05.974Z,40.63
2022-12-03T19:56:32.613Z,44.00
2022-12-03T19:58:58.832Z,48.03
2022-12-03T20:01:26.452Z,43.22
2022-12-03T20:03:53.825Z,48.55
2022-12-03T20:06:23.028Z,44.88
2022-12-03T20:08:49.976Z,45.38
2022-12-03T20:13:42.894Z,49.22
2022-12-03T20:16:12.487Z,46.53
2022-12-03T20:18:40.280Z,47.80
2022-12-03T20:21:06.577Z,37.53
2022-12-03T20:23:32.831Z,50.83
2022-12-03T20:25:59.130Z,46.75
2022-12-03T20:28:26.846Z,48.95
2022-12-03T20:31:04.275Z,49.83
2022-12-03T20:35:57.110Z,44.92
2022-12-03T20:38:23.730Z,46.95
2022-12-03T20:40:49.961Z,49.75
2022-12-03T20:43:16.370Z,47.05
2022-12-03T20:45:42.817Z,48.35
2022-12-03T20:48:09.166Z,42.50
2022-12-03T20:50:37.629Z,42.90
2022-12-03T20:53:23.782Z,45.65
2022-12-03T20:55:56.691Z,44.17
2022-12-03T20:58:23.022Z,46.75
2022-12-03T21:00:49.351Z,50.95
2022-12-03T21:03:15.645Z,50.03
2022-12-03T21:05:43.733Z,50.92
2022-12-03T21:08:10.497Z,47.22
2022-12-03T21:10:44.494Z,51.70
2022-12-03T21:13:14.688Z,56.35
2022-12-03T21:15:41.450Z,50.05
2022-12-03T21:18:08.863Z,46.17
2022-12-03T21:20:42.013Z,43.30
2022-12-03T21:23:08.662Z,44.45
2022-12-03T21:25:35.621Z,46.75
2022-12-03T21:28:02.967Z,44.35
2022-12-03T21:30:29.264Z,42.80
2022-12-03T21:32:55.511Z,51.03
2022-12-03T21:35:21.835Z,49.17
2022-12-03T21:37:48.779Z,43.13
2022-12-03T21:42:41.782Z,42.20
2022-12-03T21:45:08.184Z,46.08
2022-12-03T21:47:37.244Z,46.47
2022-12-03T21:50:05.022Z,45.70
2022-12-03T21:52:31.970Z,38.78
2022-12-03T21:54:58.170Z,39.10
2022-12-03T21:57:24.376Z,42.42
2022-12-03T21:59:50.633Z,40.97
2022-12-03T22:02:16.931Z,40.97
2022-12-03T22:04:43.263Z,40.22
2022-12-03T22:07:09.495Z,47.15
2022-12-03T22:09:35.762Z,43.45
2022-12-03T22:12:02.033Z,38.55
2022-12-03T22:14:28.519Z,45.35
2022-12-03T22:16:54.792Z,46.13
2022-12-03T22:19:25.362Z,43.42
2022-12-03T22:21:51.745Z,40.90
2022-12-03T22:24:19.316Z,46.90
2022-12-03T22:26:46.184Z,44.47
2022-12-03T22:31:38.564Z,43.35
2022-12-03T22:34:05.088Z,44.67
2022-12-03T22:36:31.305Z,38.75
2022-12-03T22:38:57.529Z,42.20
2022-12-03T22:41:23.741Z,38.47
2022-12-03T22:43:49.970Z,41.35
2022-12-03T22:46:16.598Z,35.92
2022-12-03T22:48:43.504Z,38.35
2022-12-03T22:53:35.866Z,37.55
2022-12-03T22:56:02.080Z,39.88
2022-12-03T22:58:28.493Z,42.95
2022-12-03T23:00:59.818Z,40.20
2022-12-03T23:03:28.805Z,40.95
2022-12-03T23:05:55.057Z,41.40
2022-12-03T23:08:21.608Z,40.50
2022-12-03T23:10:49.287Z,38.38
2022-12-03T23:13:15.936Z,38.55
2022-12-03T23:15:49.264Z,38.50
2022-12-03T23:18:16.404Z,38.47
2022-12-03T23:20:43.958Z,37.22
2022-12-03T23:23:10.184Z,39.13
2022-12-03T23:25:37.183Z,34.75
2022-12-03T23:28:03.665Z,34.85
2022-12-03T23:30:30.005Z,33.83
2022-12-03T23:32:56.299Z,39.08
2022-12-03T23:35:22.525Z,33.78
2022-12-03T23:37:48.740Z,33.45
2022-12-03T23:40:14.995Z,34.30
2022-12-03T23:42:41.217Z,32.28
2022-12-03T23:45:07.854Z,32.03
2022-12-03T23:47:34.134Z,33.90
2022-12-03T23:50:00.386Z,30.13
2022-12-03T23:52:26.591Z,35.42
2022-12-03T23:54:52.822Z,34.33
2022-12-03T23:57:19.069Z,39.33
2022-12-03T23:59:45.401Z,34.58
